sensor_id;sensor_type;location;lat;lon;timestamp;P1;durP1;ratioP1;P2;durP2;ratioP2
55316;SDS011;41178;48.956;8.130;2022-08-30T00:02:12;5.68;;;2.30;;
55316;SDS011;41178;48.956;8.130;2022-08-30T00:04:16;8.05;;;2.60;;
55316;SDS011;41178;48.956;8.130;2022-08-30T00:06:18;5.93;;;2.90;;
55316;SDS011;41178;48.956;8.130;2022-08-30T00:08:21;4.63;;;2.70;;
55316;SDS011;41178;48.956;8.130;2022-08-30T00:10:23;5.65;;;2.97;;
55316;SDS011;41178;48.956;8.130;2022-08-30T00:12:26;4.53;;;2.92;;
55316;SDS011;41178;48.956;8.130;2022-08-30T00:14:28;4.25;;;2.60;;
55316;SDS011;41178;48.956;8.130;2022-08-30T00:16:29;5.05;;;2.42;;
55316;SDS011;41178;48.956;8.130;2022-08-30T00:18:32;4.47;;;2.67;;
55316;SDS011;41178;48.956;8.130;2022-08-30T00:20:35;6.18;;;2.80;;
55316;SDS011;41178;48.956;8.130;2022-08-30T00:22:38;4.05;;;2.60;;
55316;SDS011;41178;48.956;8.130;2022-08-30T00:24:40;3.22;;;2.60;;
55316;SDS011;41178;48.956;8.130;2022-08-30T00:26:42;3.92;;;2.75;;
55316;SDS011;41178;48.956;8.130;2022-08-30T00:28:43;4.25;;;2.85;;
55316;SDS011;41178;48.956;8.130;2022-08-30T00:30:45;4.28;;;2.80;;
55316;SDS011;41178;48.956;8.130;2022-08-30T00:32:47;6.70;;;2.60;;
55316;SDS011;41178;48.956;8.130;2022-08-30T00:34:50;4.03;;;2.47;;
55316;SDS011;41178;48.956;8.130;2022-08-30T00:36:52;3.85;;;2.60;;
55316;SDS011;41178;48.956;8.130;2022-08-30T00:38:54;8.20;;;3.15;;
55316;SDS011;41178;48.956;8.130;2022-08-30T00:40:56;5.82;;;2.80;;
55316;SDS011;41178;48.956;8.130;2022-08-30T00:43:00;5.47;;;2.78;;
55316;SDS011;41178;48.956;8.130;2022-08-30T00:45:10;6.13;;;2.92;;
55316;SDS011;41178;48.956;8.130;2022-08-30T00:47:13;4.80;;;2.75;;
55316;SDS011;41178;48.956;8.130;2022-08-30T00:49:15;6.30;;;3.05;;
55316;SDS011;41178;48.956;8.130;2022-08-30T00:51:17;4.78;;;2.38;;
55316;SDS011;41178;48.956;8.130;2022-08-30T00:53:25;7.10;;;2.83;;
55316;SDS011;41178;48.956;8.130;2022-08-30T00:55:30;4.40;;;2.83;;
55316;SDS011;41178;48.956;8.130;2022-08-30T00:57:33;3.53;;;2.85;;
55316;SDS011;41178;48.956;8.130;2022-08-30T00:59:36;3.78;;;2.13;;
55316;SDS011;41178;48.956;8.130;2022-08-30T01:01:38;4.22;;;2.53;;
55316;SDS011;41178;48.956;8.130;2022-08-30T01:03:40;4.45;;;2.70;;
55316;SDS011;41178;48.956;8.130;2022-08-30T01:05:43;12.77;;;3.17;;
55316;SDS011;41178;48.956;8.130;2022-08-30T01:07:46;4.93;;;2.90;;
55316;SDS011;41178;48.956;8.130;2022-08-30T01:09:48;5.10;;;2.83;;
55316;SDS011;41178;48.956;8.130;2022-08-30T01:11:49;5.75;;;3.05;;
55316;SDS011;41178;48.956;8.130;2022-08-30T01:13:51;3.55;;;2.13;;
55316;SDS011;41178;48.956;8.130;2022-08-30T01:15:54;5.40;;;2.50;;
55316;SDS011;41178;48.956;8.130;2022-08-30T01:17:57;3.88;;;2.53;;
55316;SDS011;41178;48.956;8.130;2022-08-30T01:22:35;5.30;;;2.78;;
55316;SDS011;41178;48.956;8.130;2022-08-30T01:24:45;5.37;;;2.80;;
55316;SDS011;41178;48.956;8.130;2022-08-30T01:26:47;3.95;;;2.58;;
55316;SDS011;41178;48.956;8.130;2022-08-30T01:28:50;5.07;;;2.92;;
55316;SDS011;41178;48.956;8.130;2022-08-30T01:30:55;5.13;;;2.45;;
55316;SDS011;41178;48.956;8.130;2022-08-30T01:32:58;3.42;;;2.53;;
55316;SDS011;41178;48.956;8.130;2022-08-30T01:35:01;6.27;;;3.03;;
55316;SDS011;41178;48.956;8.130;2022-08-30T01:37:03;7.35;;;2.80;;
55316;SDS011;41178;48.956;8.130;2022-08-30T01:39:05;4.50;;;2.97;;
55316;SDS011;41178;48.956;8.130;2022-08-30T01:41:17;3.25;;;2.28;;
55316;SDS011;41178;48.956;8.130;2022-08-30T01:43:19;6.07;;;2.63;;
55316;SDS011;41178;48.956;8.130;2022-08-30T01:45:21;3.17;;;2.25;;
55316;SDS011;41178;48.956;8.130;2022-08-30T01:47:23;5.78;;;2.40;;
55316;SDS011;41178;48.956;8.130;2022-08-30T01:49:24;4.18;;;2.20;;
55316;SDS011;41178;48.956;8.130;2022-08-30T01:51:28;6.47;;;2.50;;
55316;SDS011;41178;48.956;8.130;2022-08-30T01:53:31;3.38;;;2.33;;
55316;SDS011;41178;48.956;8.130;2022-08-30T01:55:33;5.25;;;2.83;;
55316;SDS011;41178;48.956;8.130;2022-08-30T01:57:35;7.57;;;3.07;;
55316;SDS011;41178;48.956;8.130;2022-08-30T01:59:37;4.87;;;2.97;;
55316;SDS011;41178;48.956;8.130;2022-08-30T02:01:40;4.40;;;2.90;;
55316;SDS011;41178;48.956;8.130;2022-08-30T02:03:43;5.87;;;2.63;;
55316;SDS011;41178;48.956;8.130;2022-08-30T02:05:45;4.30;;;2.60;;
55316;SDS011;41178;48.956;8.130;2022-08-30T02:07:48;4.57;;;2.88;;
55316;SDS011;41178;48.956;8.130;2022-08-30T02:09:50;3.57;;;2.13;;
55316;SDS011;41178;48.956;8.130;2022-08-30T02:11:52;5.60;;;2.70;;
55316;SDS011;41178;48.956;8.130;2022-08-30T02:13:54;4.63;;;2.85;;
55316;SDS011;41178;48.956;8.130;2022-08-30T02:15:56;4.60;;;2.42;;
55316;SDS011;41178;48.956;8.130;2022-08-30T02:17:59;5.15;;;2.70;;
55316;SDS011;41178;48.956;8.130;2022-08-30T02:20:01;5.03;;;2.90;;
55316;SDS011;41178;48.956;8.130;2022-08-30T02:22:04;4.60;;;2.50;;
55316;SDS011;41178;48.956;8.130;2022-08-30T02:24:06;5.40;;;2.42;;
55316;SDS011;41178;48.956;8.130;2022-08-30T02:26:08;7.60;;;2.90;;
55316;SDS011;41178;48.956;8.130;2022-08-30T02:28:10;4.68;;;2.50;;
55316;SDS011;41178;48.956;8.130;2022-08-30T02:30:15;4.88;;;3.03;;
55316;SDS011;41178;48.956;8.130;2022-08-30T02:32:16;4.28;;;3.00;;
55316;SDS011;41178;48.956;8.130;2022-08-30T02:34:18;4.40;;;2.80;;
55316;SDS011;41178;48.956;8.130;2022-08-30T02:36:20;3.20;;;2.20;;
55316;SDS011;41178;48.956;8.130;2022-08-30T02:38:22;4.27;;;2.67;;
55316;SDS011;41178;48.956;8.130;2022-08-30T02:40:24;5.43;;;3.23;;
55316;SDS011;41178;48.956;8.130;2022-08-30T02:42:26;4.57;;;2.50;;
55316;SDS011;41178;48.956;8.130;2022-08-30T02:44:27;6.40;;;3.15;;
55316;SDS011;41178;48.956;8.130;2022-08-30T02:46:29;3.77;;;2.50;;
55316;SDS011;41178;48.956;8.130;2022-08-30T02:48:34;5.13;;;2.90;;
55316;SDS011;41178;48.956;8.130;2022-08-30T02:50:43;3.73;;;2.60;;
55316;SDS011;41178;48.956;8.130;2022-08-30T02:52:46;4.60;;;2.67;;
55316;SDS011;41178;48.956;8.130;2022-08-30T02:54:48;4.37;;;3.03;;
55316;SDS011;41178;48.956;8.130;2022-08-30T02:56:50;6.50;;;3.33;;
55316;SDS011;41178;48.956;8.130;2022-08-30T02:58:52;3.60;;;2.57;;
55316;SDS011;41178;48.956;8.130;2022-08-30T03:00:54;4.90;;;2.80;;
55316;SDS011;41178;48.956;8.130;2022-08-30T03:02:56;5.63;;;3.00;;
55316;SDS011;41178;48.956;8.130;2022-08-30T03:04:57;7.60;;;3.10;;
55316;SDS011;41178;48.956;8.130;2022-08-30T03:06:59;5.00;;;3.00;;
55316;SDS011;41178;48.956;8.130;2022-08-30T03:09:01;8.43;;;3.03;;
55316;SDS011;41178;48.956;8.130;2022-08-30T03:11:03;5.30;;;2.90;;
55316;SDS011;41178;48.956;8.130;2022-08-30T03:13:05;7.97;;;2.67;;
55316;SDS011;41178;48.956;8.130;2022-08-30T03:15:10;6.30;;;2.63;;
55316;SDS011;41178;48.956;8.130;2022-08-30T03:17:13;6.67;;;2.83;;
55316;SDS011;41178;48.956;8.130;2022-08-30T03:19:16;5.07;;;2.93;;
55316;SDS011;41178;48.956;8.130;2022-08-30T03:21:18;6.03;;;3.13;;
55316;SDS011;41178;48.956;8.130;2022-08-30T03:23:19;6.00;;;3.60;;
55316;SDS011;41178;48.956;8.130;2022-08-30T03:25:22;6.53;;;3.00;;
55316;SDS011;41178;48.956;8.130;2022-08-30T03:27:25;3.33;;;2.57;;
55316;SDS011;41178;48.956;8.130;2022-08-30T03:29:27;6.00;;;2.90;;
55316;SDS011;41178;48.956;8.130;2022-08-30T03:31:29;9.97;;;3.30;;
55316;SDS011;41178;48.956;8.130;2022-08-30T03:33:52;6.27;;;2.63;;
55316;SDS011;41178;48.956;8.130;2022-08-30T03:35:54;6.57;;;3.00;;
55316;SDS011;41178;48.956;8.130;2022-08-30T03:37:56;4.80;;;2.37;;
55316;SDS011;41178;48.956;8.130;2022-08-30T03:39:59;7.60;;;2.63;;
55316;SDS011;41178;48.956;8.130;2022-08-30T03:42:02;5.73;;;2.90;;
55316;SDS011;41178;48.956;8.130;2022-08-30T03:44:04;5.77;;;3.00;;
55316;SDS011;41178;48.956;8.130;2022-08-30T03:46:05;5.73;;;2.77;;
55316;SDS011;41178;48.956;8.130;2022-08-30T03:48:08;4.80;;;2.77;;
55316;SDS011;41178;48.956;8.130;2022-08-30T03:50:10;4.67;;;2.83;;
55316;SDS011;41178;48.956;8.130;2022-08-30T03:52:12;6.37;;;2.70;;
55316;SDS011;41178;48.956;8.130;2022-08-30T03:54:14;5.20;;;2.60;;
55316;SDS011;41178;48.956;8.130;2022-08-30T03:56:16;6.57;;;2.77;;
55316;SDS011;41178;48.956;8.130;2022-08-30T03:58:18;4.60;;;2.53;;
55316;SDS011;41178;48.956;8.130;2022-08-30T04:00:20;3.50;;;2.80;;
55316;SDS011;41178;48.956;8.130;2022-08-30T04:02:22;9.03;;;3.23;;
55316;SDS011;41178;48.956;8.130;2022-08-30T04:04:24;5.83;;;2.80;;
55316;SDS011;41178;48.956;8.130;2022-08-30T04:06:26;6.57;;;3.10;;
55316;SDS011;41178;48.956;8.130;2022-08-30T04:08:28;3.40;;;2.40;;
55316;SDS011;41178;48.956;8.130;2022-08-30T04:10:30;7.00;;;3.20;;
55316;SDS011;41178;48.956;8.130;2022-08-30T04:12:32;7.00;;;3.30;;
55316;SDS011;41178;48.956;8.130;2022-08-30T04:14:34;5.27;;;2.67;;
55316;SDS011;41178;48.956;8.130;2022-08-30T04:16:35;3.97;;;2.90;;
55316;SDS011;41178;48.956;8.130;2022-08-30T04:18:37;5.83;;;2.83;;
55316;SDS011;41178;48.956;8.130;2022-08-30T04:20:39;6.03;;;3.30;;
55316;SDS011;41178;48.956;8.130;2022-08-30T04:22:41;4.63;;;2.73;;
55316;SDS011;41178;48.956;8.130;2022-08-30T04:24:43;6.10;;;3.17;;
55316;SDS011;41178;48.956;8.130;2022-08-30T04:26:44;6.07;;;3.23;;
55316;SDS011;41178;48.956;8.130;2022-08-30T04:28:46;6.90;;;2.60;;
55316;SDS011;41178;48.956;8.130;2022-08-30T04:30:48;6.47;;;2.77;;
55316;SDS011;41178;48.956;8.130;2022-08-30T04:32:49;5.60;;;2.70;;
55316;SDS011;41178;48.956;8.130;2022-08-30T04:34:56;5.63;;;3.23;;
55316;SDS011;41178;48.956;8.130;2022-08-30T04:36:58;6.37;;;2.90;;
55316;SDS011;41178;48.956;8.130;2022-08-30T04:39:00;4.50;;;2.80;;
55316;SDS011;41178;48.956;8.130;2022-08-30T04:41:02;6.53;;;2.87;;
55316;SDS011;41178;48.956;8.130;2022-08-30T04:43:09;5.13;;;2.80;;
55316;SDS011;41178;48.956;8.130;2022-08-30T04:45:13;6.33;;;2.60;;
55316;SDS011;41178;48.956;8.130;2022-08-30T04:47:16;4.77;;;2.83;;
55316;SDS011;41178;48.956;8.130;2022-08-30T04:49:19;5.77;;;2.63;;
55316;SDS011;41178;48.956;8.130;2022-08-30T04:51:20;7.13;;;2.90;;
55316;SDS011;41178;48.956;8.130;2022-08-30T04:53:22;8.90;;;2.93;;
55316;SDS011;41178;48.956;8.130;2022-08-30T04:55:24;5.10;;;3.23;;
55316;SDS011;41178;48.956;8.130;2022-08-30T04:57:27;5.10;;;3.10;;
55316;SDS011;41178;48.956;8.130;2022-08-30T04:59:29;5.23;;;2.87;;
55316;SDS011;41178;48.956;8.130;2022-08-30T05:01:31;4.83;;;2.90;;
55316;SDS011;41178;48.956;8.130;2022-08-30T05:03:46;6.57;;;2.90;;
55316;SDS011;41178;48.956;8.130;2022-08-30T05:05:49;7.00;;;3.13;;
55316;SDS011;41178;48.956;8.130;2022-08-30T05:07:51;5.13;;;2.60;;
55316;SDS011;41178;48.956;8.130;2022-08-30T05:09:53;6.97;;;2.93;;
55316;SDS011;41178;48.956;8.130;2022-08-30T05:11:55;4.97;;;2.77;;
55316;SDS011;41178;48.956;8.130;2022-08-30T05:13:57;4.37;;;2.47;;
55316;SDS011;41178;48.956;8.130;2022-08-30T05:15:59;5.40;;;3.23;;
55316;SDS011;41178;48.956;8.130;2022-08-30T05:18:01;5.53;;;3.20;;
55316;SDS011;41178;48.956;8.130;2022-08-30T05:20:04;7.20;;;2.70;;
55316;SDS011;41178;48.956;8.130;2022-08-30T05:22:08;5.17;;;2.70;;
55316;SDS011;41178;48.956;8.130;2022-08-30T05:24:10;7.10;;;2.97;;
55316;SDS011;41178;48.956;8.130;2022-08-30T05:26:16;6.77;;;3.40;;
55316;SDS011;41178;48.956;8.130;2022-08-30T05:28:20;7.97;;;3.00;;
55316;SDS011;41178;48.956;8.130;2022-08-30T05:30:26;6.40;;;3.00;;
55316;SDS011;41178;48.956;8.130;2022-08-30T05:32:28;7.60;;;3.37;;
55316;SDS011;41178;48.956;8.130;2022-08-30T05:34:30;6.03;;;3.00;;
55316;SDS011;41178;48.956;8.130;2022-08-30T05:36:33;6.63;;;2.93;;
55316;SDS011;41178;48.956;8.130;2022-08-30T05:38:36;4.37;;;2.83;;
55316;SDS011;41178;48.956;8.130;2022-08-30T05:40:39;7.83;;;2.97;;
55316;SDS011;41178;48.956;8.130;2022-08-30T05:42:43;6.63;;;2.93;;
55316;SDS011;41178;48.956;8.130;2022-08-30T05:44:49;4.60;;;3.07;;
55316;SDS011;41178;48.956;8.130;2022-08-30T05:46:52;5.30;;;3.17;;
55316;SDS011;41178;48.956;8.130;2022-08-30T05:48:54;6.40;;;3.20;;
55316;SDS011;41178;48.956;8.130;2022-08-30T05:53:07;4.37;;;2.87;;
55316;SDS011;41178;48.956;8.130;2022-08-30T05:55:09;5.00;;;3.30;;
55316;SDS011;41178;48.956;8.130;2022-08-30T05:57:12;5.80;;;2.97;;
55316;SDS011;41178;48.956;8.130;2022-08-30T05:59:14;4.83;;;2.90;;
55316;SDS011;41178;48.956;8.130;2022-08-30T06:03:23;5.37;;;3.00;;
55316;SDS011;41178;48.956;8.130;2022-08-30T06:05:27;7.30;;;2.70;;
55316;SDS011;41178;48.956;8.130;2022-08-30T06:07:33;6.93;;;2.80;;
55316;SDS011;41178;48.956;8.130;2022-08-30T06:09:35;8.20;;;2.70;;
55316;SDS011;41178;48.956;8.130;2022-08-30T06:11:36;5.67;;;3.13;;
55316;SDS011;41178;48.956;8.130;2022-08-30T06:13:38;5.10;;;2.50;;
55316;SDS011;41178;48.956;8.130;2022-08-30T06:15:41;7.87;;;2.70;;
55316;SDS011;41178;48.956;8.130;2022-08-30T06:17:46;7.47;;;2.83;;
55316;SDS011;41178;48.956;8.130;2022-08-30T06:19:48;5.20;;;3.03;;
55316;SDS011;41178;48.956;8.130;2022-08-30T06:21:50;7.20;;;3.93;;
55316;SDS011;41178;48.956;8.130;2022-08-30T06:23:52;4.57;;;2.70;;
55316;SDS011;41178;48.956;8.130;2022-08-30T06:25:54;7.03;;;3.13;;
55316;SDS011;41178;48.956;8.130;2022-08-30T06:27:56;5.93;;;3.37;;
55316;SDS011;41178;48.956;8.130;2022-08-30T06:29:57;5.20;;;2.63;;
55316;SDS011;41178;48.956;8.130;2022-08-30T06:31:59;5.90;;;3.10;;
55316;SDS011;41178;48.956;8.130;2022-08-30T06:34:01;4.80;;;2.77;;
55316;SDS011;41178;48.956;8.130;2022-08-30T06:36:03;5.67;;;2.53;;
55316;SDS011;41178;48.956;8.130;2022-08-30T06:38:06;4.23;;;2.80;;
55316;SDS011;41178;48.956;8.130;2022-08-30T06:40:08;6.73;;;3.47;;
55316;SDS011;41178;48.956;8.130;2022-08-30T06:42:11;7.00;;;3.10;;
55316;SDS011;41178;48.956;8.130;2022-08-30T06:44:13;4.90;;;2.97;;
55316;SDS011;41178;48.956;8.130;2022-08-30T06:46:21;5.30;;;3.07;;
55316;SDS011;41178;48.956;8.130;2022-08-30T06:48:25;5.03;;;3.27;;
55316;SDS011;41178;48.956;8.130;2022-08-30T06:50:26;4.87;;;3.07;;
55316;SDS011;41178;48.956;8.130;2022-08-30T06:52:28;14.10;;;4.27;;
55316;SDS011;41178;48.956;8.130;2022-08-30T06:54:31;4.47;;;3.13;;
55316;SDS011;41178;48.956;8.130;2022-08-30T06:56:32;5.57;;;3.10;;
55316;SDS011;41178;48.956;8.130;2022-08-30T06:58:37;4.57;;;3.10;;
55316;SDS011;41178;48.956;8.130;2022-08-30T07:00:39;6.97;;;3.47;;
55316;SDS011;41178;48.956;8.130;2022-08-30T07:02:42;6.07;;;2.80;;
55316;SDS011;41178;48.956;8.130;2022-08-30T07:04:43;5.50;;;3.33;;
55316;SDS011;41178;48.956;8.130;2022-08-30T07:06:45;6.37;;;3.43;;
55316;SDS011;41178;48.956;8.130;2022-08-30T07:08:47;4.93;;;3.43;;
55316;SDS011;41178;48.956;8.130;2022-08-30T07:10:56;6.60;;;3.13;;
55316;SDS011;41178;48.956;8.130;2022-08-30T07:12:58;8.37;;;4.13;;
55316;SDS011;41178;48.956;8.130;2022-08-30T07:15:00;7.07;;;3.33;;
55316;SDS011;41178;48.956;8.130;2022-08-30T07:17:04;5.20;;;3.30;;
55316;SDS011;41178;48.956;8.130;2022-08-30T07:19:31;7.63;;;3.40;;
55316;SDS011;41178;48.956;8.130;2022-08-30T07:21:37;6.75;;;3.20;;
55316;SDS011;41178;48.956;8.130;2022-08-30T07:23:43;5.13;;;3.00;;
55316;SDS011;41178;48.956;8.130;2022-08-30T07:25:53;7.32;;;3.10;;
55316;SDS011;41178;48.956;8.130;2022-08-30T07:27:55;8.50;;;3.30;;
55316;SDS011;41178;48.956;8.130;2022-08-30T07:29:57;6.75;;;3.67;;
55316;SDS011;41178;48.956;8.130;2022-08-30T07:32:01;5.65;;;2.88;;
55316;SDS011;41178;48.956;8.130;2022-08-30T07:34:03;4.50;;;3.15;;
55316;SDS011;41178;48.956;8.130;2022-08-30T07:36:07;5.90;;;3.33;;
55316;SDS011;41178;48.956;8.130;2022-08-30T07:38:11;9.20;;;3.30;;
55316;SDS011;41178;48.956;8.130;2022-08-30T07:40:13;6.47;;;3.10;;
55316;SDS011;41178;48.956;8.130;2022-08-30T07:42:15;5.72;;;2.90;;
55316;SDS011;41178;48.956;8.130;2022-08-30T07:44:17;4.65;;;3.00;;
55316;SDS011;41178;48.956;8.130;2022-08-30T07:46:23;8.88;;;3.10;;
55316;SDS011;41178;48.956;8.130;2022-08-30T07:48:26;5.63;;;3.38;;
55316;SDS011;41178;48.956;8.130;2022-08-30T07:50:27;5.78;;;3.45;;
55316;SDS011;41178;48.956;8.130;2022-08-30T07:52:29;4.88;;;2.85;;
55316;SDS011;41178;48.956;8.130;2022-08-30T07:54:31;5.13;;;3.53;;
55316;SDS011;41178;48.956;8.130;2022-08-30T07:56:32;7.80;;;3.67;;
55316;SDS011;41178;48.956;8.130;2022-08-30T07:58:35;7.03;;;3.30;;
55316;SDS011;41178;48.956;8.130;2022-08-30T08:00:40;8.70;;;3.20;;
55316;SDS011;41178;48.956;8.130;2022-08-30T08:02:42;6.05;;;3.10;;
55316;SDS011;41178;48.956;8.130;2022-08-30T08:04:45;5.57;;;3.67;;
55316;SDS011;41178;48.956;8.130;2022-08-30T08:06:48;5.80;;;3.40;;
55316;SDS011;41178;48.956;8.130;2022-08-30T08:08:50;10.27;;;3.40;;
55316;SDS011;41178;48.956;8.130;2022-08-30T08:10:54;7.70;;;3.40;;
55316;SDS011;41178;48.956;8.130;2022-08-30T08:12:55;6.93;;;3.28;;
55316;SDS011;41178;48.956;8.130;2022-08-30T08:14:57;5.30;;;3.30;;
55316;SDS011;41178;48.956;8.130;2022-08-30T08:16:59;7.53;;;3.75;;
55316;SDS011;41178;48.956;8.130;2022-08-30T08:19:01;7.20;;;3.60;;
55316;SDS011;41178;48.956;8.130;2022-08-30T08:21:04;8.18;;;3.47;;
55316;SDS011;41178;48.956;8.130;2022-08-30T08:23:06;4.78;;;3.25;;
55316;SDS011;41178;48.956;8.130;2022-08-30T08:25:08;8.27;;;3.40;;
55316;SDS011;41178;48.956;8.130;2022-08-30T08:27:09;5.25;;;3.28;;
55316;SDS011;41178;48.956;8.130;2022-08-30T08:29:11;5.97;;;3.50;;
55316;SDS011;41178;48.956;8.130;2022-08-30T08:31:17;9.48;;;3.60;;
55316;SDS011;41178;48.956;8.130;2022-08-30T08:33:21;7.53;;;3.58;;
55316;SDS011;41178;48.956;8.130;2022-08-30T08:35:23;5.75;;;3.50;;
55316;SDS011;41178;48.956;8.130;2022-08-30T08:37:24;6.20;;;3.30;;
55316;SDS011;41178;48.956;8.130;2022-08-30T08:39:28;5.85;;;3.40;;
55316;SDS011;41178;48.956;8.130;2022-08-30T08:43:53;6.10;;;3.20;;
55316;SDS011;41178;48.956;8.130;2022-08-30T08:46:43;9.05;;;3.47;;
55316;SDS011;41178;48.956;8.130;2022-08-30T08:48:39;10.98;;;3.60;;
55316;SDS011;41178;48.956;8.130;2022-08-30T08:51:00;10.45;;;3.55;;
55316;SDS011;41178;48.956;8.130;2022-08-30T08:53:21;7.47;;;3.80;;
55316;SDS011;41178;48.956;8.130;2022-08-30T08:55:50;7.30;;;3.47;;
55316;SDS011;41178;48.956;8.130;2022-08-30T08:57:53;6.68;;;3.50;;
55316;SDS011;41178;48.956;8.130;2022-08-30T08:59:54;6.75;;;3.65;;
55316;SDS011;41178;48.956;8.130;2022-08-30T09:01:57;8.48;;;4.38;;
55316;SDS011;41178;48.956;8.130;2022-08-30T09:04:02;7.60;;;3.67;;
55316;SDS011;41178;48.956;8.130;2022-08-30T09:06:14;7.32;;;3.72;;
55316;SDS011;41178;48.956;8.130;2022-08-30T09:08:23;5.63;;;3.70;;
55316;SDS011;41178;48.956;8.130;2022-08-30T09:10:25;9.18;;;4.13;;
55316;SDS011;41178;48.956;8.130;2022-08-30T09:12:47;6.00;;;3.95;;
55316;SDS011;41178;48.956;8.130;2022-08-30T09:14:53;8.27;;;3.70;;
55316;SDS011;41178;48.956;8.130;2022-08-30T09:17:12;4.65;;;3.30;;
55316;SDS011;41178;48.956;8.130;2022-08-30T09:19:27;6.55;;;3.50;;
55316;SDS011;41178;48.956;8.130;2022-08-30T09:21:34;8.65;;;3.83;;
55316;SDS011;41178;48.956;8.130;2022-08-30T09:23:36;6.57;;;3.72;;
55316;SDS011;41178;48.956;8.130;2022-08-30T09:25:59;7.38;;;3.60;;
55316;SDS011;41178;48.956;8.130;2022-08-30T09:28:11;6.15;;;3.20;;
55316;SDS011;41178;48.956;8.130;2022-08-30T09:32:31;7.90;;;3.53;;
55316;SDS011;41178;48.956;8.130;2022-08-30T09:34:36;9.27;;;3.83;;
55316;SDS011;41178;48.956;8.130;2022-08-30T09:36:48;5.80;;;4.03;;
55316;SDS011;41178;48.956;8.130;2022-08-30T09:39:00;4.63;;;3.20;;
55316;SDS011;41178;48.956;8.130;2022-08-30T09:41:32;7.35;;;3.78;;
55316;SDS011;41178;48.956;8.130;2022-08-30T09:43:38;7.13;;;3.80;;
55316;SDS011;41178;48.956;8.130;2022-08-30T09:45:40;6.72;;;3.78;;
55316;SDS011;41178;48.956;8.130;2022-08-30T09:47:44;6.90;;;3.83;;
55316;SDS011;41178;48.956;8.130;2022-08-30T09:49:46;6.78;;;4.00;;
55316;SDS011;41178;48.956;8.130;2022-08-30T09:51:50;8.05;;;3.75;;
55316;SDS011;41178;48.956;8.130;2022-08-30T09:56:21;9.38;;;3.90;;
55316;SDS011;41178;48.956;8.130;2022-08-30T10:03:39;6.43;;;3.72;;
55316;SDS011;41178;48.956;8.130;2022-08-30T10:05:53;6.47;;;3.45;;
55316;SDS011;41178;48.956;8.130;2022-08-30T10:10:21;9.48;;;3.88;;
55316;SDS011;41178;48.956;8.130;2022-08-30T10:12:38;5.55;;;3.60;;
55316;SDS011;41178;48.956;8.130;2022-08-30T10:20:06;7.95;;;4.00;;
55316;SDS011;41178;48.956;8.130;2022-08-30T10:22:38;7.32;;;3.60;;
55316;SDS011;41178;48.956;8.130;2022-08-30T10:24:43;8.18;;;4.10;;
55316;SDS011;41178;48.956;8.130;2022-08-30T10:26:49;7.13;;;3.72;;
55316;SDS011;41178;48.956;8.130;2022-08-30T10:28:56;6.00;;;4.05;;
55316;SDS011;41178;48.956;8.130;2022-08-30T10:31:04;6.70;;;3.60;;
55316;SDS011;41178;48.956;8.130;2022-08-30T10:33:25;8.57;;;3.60;;
55316;SDS011;41178;48.956;8.130;2022-08-30T10:35:35;7.90;;;3.85;;
55316;SDS011;41178;48.956;8.130;2022-08-30T10:38:03;6.18;;;3.28;;
55316;SDS011;41178;48.956;8.130;2022-08-30T10:40:14;6.07;;;3.75;;
55316;SDS011;41178;48.956;8.130;2022-08-30T10:42:40;6.80;;;3.40;;
55316;SDS011;41178;48.956;8.130;2022-08-30T10:44:45;6.80;;;3.85;;
55316;SDS011;41178;48.956;8.130;2022-08-30T10:49:14;5.43;;;3.53;;
55316;SDS011;41178;48.956;8.130;2022-08-30T10:51:27;7.95;;;3.95;;
55316;SDS011;41178;48.956;8.130;2022-08-30T10:53:42;7.57;;;3.85;;
55316;SDS011;41178;48.956;8.130;2022-08-30T10:58:09;9.90;;;4.03;;
55316;SDS011;41178;48.956;8.130;2022-08-30T11:00:21;5.25;;;3.45;;
55316;SDS011;41178;48.956;8.130;2022-08-30T11:08:31;5.07;;;3.60;;
55316;SDS011;41178;48.956;8.130;2022-08-30T11:15:20;7.43;;;4.00;;
55316;SDS011;41178;48.956;8.130;2022-08-30T11:17:29;8.27;;;3.95;;
55316;SDS011;41178;48.956;8.130;2022-08-30T11:19:37;6.57;;;4.10;;
55316;SDS011;41178;48.956;8.130;2022-08-30T11:21:41;8.43;;;3.90;;
55316;SDS011;41178;48.956;8.130;2022-08-30T11:32:59;5.13;;;3.90;;
55316;SDS011;41178;48.956;8.130;2022-08-30T11:35:02;9.00;;;4.15;;
55316;SDS011;41178;48.956;8.130;2022-08-30T11:41:49;6.03;;;4.10;;
55316;SDS011;41178;48.956;8.130;2022-08-30T11:44:30;7.40;;;4.25;;
55316;SDS011;41178;48.956;8.130;2022-08-30T11:46:37;6.40;;;3.92;;
55316;SDS011;41178;48.956;8.130;2022-08-30T11:48:46;5.88;;;3.90;;
55316;SDS011;41178;48.956;8.130;2022-08-30T11:50:58;5.30;;;3.90;;
55316;SDS011;41178;48.956;8.130;2022-08-30T11:58:13;7.10;;;4.00;;
55316;SDS011;41178;48.956;8.130;2022-08-30T12:00:34;5.30;;;4.00;;
55316;SDS011;41178;48.956;8.130;2022-08-30T12:04:50;6.68;;;4.28;;
55316;SDS011;41178;48.956;8.130;2022-08-30T12:06:57;8.68;;;4.20;;
55316;SDS011;41178;48.956;8.130;2022-08-30T12:09:04;5.10;;;4.40;;
55316;SDS011;41178;48.956;8.130;2022-08-30T12:15:53;5.88;;;4.07;;
55316;SDS011;41178;48.956;8.130;2022-08-30T12:18:01;5.75;;;4.03;;
55316;SDS011;41178;48.956;8.130;2022-08-30T12:22:31;5.15;;;4.07;;
55316;SDS011;41178;48.956;8.130;2022-08-30T12:24:39;5.40;;;4.00;;
55316;SDS011;41178;48.956;8.130;2022-08-30T12:26:45;5.28;;;4.18;;
55316;SDS011;41178;48.956;8.130;2022-08-30T12:28:50;5.40;;;4.60;;
55316;SDS011;41178;48.956;8.130;2022-08-30T12:31:06;4.97;;;4.03;;
55316;SDS011;41178;48.956;8.130;2022-08-30T12:33:12;5.72;;;4.13;;
55316;SDS011;41178;48.956;8.130;2022-08-30T12:35:29;5.68;;;4.03;;
55316;SDS011;41178;48.956;8.130;2022-08-30T12:37:33;5.75;;;4.10;;
55316;SDS011;41178;48.956;8.130;2022-08-30T12:39:38;5.20;;;4.38;;
55316;SDS011;41178;48.956;8.130;2022-08-30T12:41:44;5.07;;;4.22;;
55316;SDS011;41178;48.956;8.130;2022-08-30T12:43:47;8.00;;;4.60;;
55316;SDS011;41178;48.956;8.130;2022-08-30T12:45:52;5.47;;;4.38;;
55316;SDS011;41178;48.956;8.130;2022-08-30T12:48:05;5.85;;;4.32;;
55316;SDS011;41178;48.956;8.130;2022-08-30T12:50:11;4.70;;;3.97;;
55316;SDS011;41178;48.956;8.130;2022-08-30T12:54:28;5.75;;;4.20;;
55316;SDS011;41178;48.956;8.130;2022-08-30T12:56:44;4.88;;;4.38;;
55316;SDS011;41178;48.956;8.130;2022-08-30T12:58:54;5.85;;;4.20;;
55316;SDS011;41178;48.956;8.130;2022-08-30T13:01:10;6.80;;;4.15;;
55316;SDS011;41178;48.956;8.130;2022-08-30T13:03:28;6.35;;;4.00;;
55316;SDS011;41178;48.956;8.130;2022-08-30T13:07:45;5.63;;;3.80;;
55316;SDS011;41178;48.956;8.130;2022-08-30T13:09:46;4.22;;;3.78;;
55316;SDS011;41178;48.956;8.130;2022-08-30T13:11:48;4.90;;;3.63;;
55316;SDS011;41178;48.956;8.130;2022-08-30T13:13:55;4.78;;;3.90;;
55316;SDS011;41178;48.956;8.130;2022-08-30T13:16:57;4.88;;;4.10;;
55316;SDS011;41178;48.956;8.130;2022-08-30T13:19:15;6.05;;;4.40;;
55316;SDS011;41178;48.956;8.130;2022-08-30T13:21:29;7.47;;;4.15;;
55316;SDS011;41178;48.956;8.130;2022-08-30T13:23:32;4.68;;;3.90;;
55316;SDS011;41178;48.956;8.130;2022-08-30T13:25:34;5.05;;;3.83;;
55316;SDS011;41178;48.956;8.130;2022-08-30T13:27:38;5.85;;;4.03;;
55316;SDS011;41178;48.956;8.130;2022-08-30T13:29:40;7.70;;;4.25;;
55316;SDS011;41178;48.956;8.130;2022-08-30T13:31:42;4.15;;;3.78;;
55316;SDS011;41178;48.956;8.130;2022-08-30T13:33:44;6.63;;;4.07;;
55316;SDS011;41178;48.956;8.130;2022-08-30T13:35:46;4.70;;;4.20;;
55316;SDS011;41178;48.956;8.130;2022-08-30T13:37:48;4.50;;;3.92;;
55316;SDS011;41178;48.956;8.130;2022-08-30T13:39:51;4.28;;;3.33;;
55316;SDS011;41178;48.956;8.130;2022-08-30T13:41:53;4.13;;;3.55;;
55316;SDS011;41178;48.956;8.130;2022-08-30T13:44:15;4.47;;;3.67;;
55316;SDS011;41178;48.956;8.130;2022-08-30T13:46:17;8.07;;;4.25;;
55316;SDS011;41178;48.956;8.130;2022-08-30T13:48:21;8.23;;;4.03;;
55316;SDS011;41178;48.956;8.130;2022-08-30T13:50:25;4.60;;;3.78;;